METAR Data
IDs: Format: Raw Decoded Include TAF

Data at: 1645 UTC 03 Dec 2021

KDRT 031553Z AUTO 16005KT 10SM CLR 22/17 A3006 RMK AO2 SLP172 T02220172